createdAt,value
2017-12-28T00:00:22.474Z,2.10
2017-12-28T00:00:56.909Z,2.10
2017-12-28T00:01:30.585Z,2.10
2017-12-28T00:02:05.025Z,2.10
2017-12-28T00:02:38.697Z,2.10
2017-12-28T00:03:12.658Z,2.10
2017-12-28T00:03:47.126Z,2.10
2017-12-28T00:04:20.969Z,2.10
2017-12-28T00:04:55.410Z,2.10
2017-12-28T00:05:29.078Z,2.10
2017-12-28T00:06:02.775Z,2.10
2017-12-28T00:06:36.452Z,2.10
2017-12-28T00:07:10.889Z,2.00
2017-12-28T00:07:44.567Z,2.00
2017-12-28T00:08:18.529Z,2.10
2017-12-28T00:08:52.970Z,2.10
2017-12-28T00:09:26.654Z,2.00
2017-12-28T00:10:00.324Z,2.10
2017-12-28T00:10:34.756Z,2.00
2017-12-28T00:11:08.423Z,2.00
2017-12-28T00:11:42.862Z,2.10
2017-12-28T00:12:16.530Z,2.00
2017-12-28T00:12:50.233Z,2.00
2017-12-28T00:13:23.941Z,2.00
2017-12-28T00:13:57.806Z,2.00
2017-12-28T00:14:31.481Z,2.00
2017-12-28T00:15:05.927Z,2.00
2017-12-28T00:15:39.586Z,2.00
2017-12-28T00:16:14.028Z,2.00
2017-12-28T00:16:47.701Z,2.00
2017-12-28T00:17:21.360Z,2.00
2017-12-28T00:17:55.789Z,2.00
2017-12-28T00:18:29.494Z,2.00
2017-12-28T00:19:03.156Z,2.00
2017-12-28T00:19:37.590Z,2.00
2017-12-28T00:20:11.250Z,2.00
2017-12-28T00:20:45.694Z,2.00
2017-12-28T00:21:19.354Z,2.00
2017-12-28T00:21:53.027Z,2.00
2017-12-28T00:22:27.457Z,2.00
2017-12-28T00:23:01.125Z,1.90
2017-12-28T00:23:35.584Z,1.90
2017-12-28T00:24:09.252Z,1.90
2017-12-28T00:24:43.161Z,1.90
2017-12-28T00:25:16.826Z,1.90
2017-12-28T00:25:50.497Z,1.90
2017-12-28T00:26:24.929Z,1.90
2017-12-28T00:26:58.611Z,1.90
2017-12-28T00:27:32.275Z,1.90
2017-12-28T00:28:06.074Z,1.90
2017-12-28T00:28:40.557Z,1.90
2017-12-28T00:29:14.218Z,1.90
2017-12-28T00:29:47.891Z,1.90
2017-12-28T00:30:21.551Z,1.90
2017-12-28T00:30:55.974Z,1.80
2017-12-28T00:31:29.639Z,1.80
2017-12-28T00:32:04.070Z,1.90
2017-12-28T00:32:38.492Z,1.80
2017-12-28T00:33:12.166Z,1.80
2017-12-28T00:33:46.627Z,1.80
2017-12-28T00:34:20.299Z,1.80
2017-12-28T00:34:53.972Z,1.80
2017-12-28T00:35:27.457Z,1.80
2017-12-28T00:36:00.939Z,1.80
2017-12-28T00:36:34.426Z,1.80
2017-12-28T00:37:08.097Z,1.80
2017-12-28T00:37:41.775Z,1.80
2017-12-28T00:38:16.019Z,1.80
2017-12-28T00:38:50.075Z,1.80
2017-12-28T00:39:24.514Z,1.80
2017-12-28T00:39:58.169Z,1.80
2017-12-28T00:40:32.601Z,1.80
2017-12-28T00:41:06.286Z,1.80
2017-12-28T00:41:41.259Z,1.80
2017-12-28T00:42:14.737Z,1.80
2017-12-28T00:42:48.404Z,1.80
2017-12-28T00:43:22.065Z,1.70
2017-12-28T00:43:56.039Z,1.80
2017-12-28T00:44:30.468Z,1.80
2017-12-28T00:45:04.234Z,1.70
2017-12-28T00:45:37.900Z,1.70
2017-12-28T00:46:11.569Z,1.70
2017-12-28T00:46:45.250Z,1.70
2017-12-28T00:47:18.729Z,1.70
2017-12-28T00:47:52.399Z,1.70
2017-12-28T00:48:26.825Z,1.70
2017-12-28T00:49:00.519Z,1.70
2017-12-28T00:49:34.329Z,1.70
2017-12-28T00:50:07.813Z,1.70
2017-12-28T00:50:41.282Z,1.70
2017-12-28T00:51:14.955Z,1.70
2017-12-28T00:51:48.620Z,1.70
2017-12-28T00:52:23.054Z,1.70
2017-12-28T00:52:56.721Z,1.70
2017-12-28T00:53:30.961Z,1.70
2017-12-28T00:54:04.661Z,1.70
2017-12-28T00:54:38.318Z,1.70
2017-12-28T00:55:12.767Z,1.70
2017-12-28T00:55:46.254Z,1.70
2017-12-28T00:56:19.737Z,1.70
2017-12-28T00:56:53.399Z,1.70
2017-12-28T00:57:27.077Z,1.70
2017-12-28T00:58:00.747Z,1.80
2017-12-28T00:58:35.184Z,1.80
2017-12-28T00:59:09.152Z,1.70
2017-12-28T00:59:43.578Z,1.70
2017-12-28T01:00:17.244Z,1.70
2017-12-28T01:00:50.914Z,1.80
2017-12-28T01:01:24.572Z,1.80
2017-12-28T01:01:58.233Z,1.80
2017-12-28T01:02:32.678Z,1.80
2017-12-28T01:03:06.343Z,1.80
2017-12-28T01:03:40.026Z,1.80
2017-12-28T01:04:13.760Z,1.80
2017-12-28T01:04:47.433Z,1.80
2017-12-28T01:05:21.094Z,1.80
2017-12-28T01:05:54.805Z,1.80
2017-12-28T01:06:28.470Z,1.80
2017-12-28T01:07:02.909Z,1.90
2017-12-28T01:07:36.591Z,1.90
2017-12-28T01:08:10.254Z,1.90
2017-12-28T01:08:44.697Z,1.90
2017-12-28T01:09:18.774Z,1.90
2017-12-28T01:09:52.445Z,1.90
2017-12-28T01:10:26.881Z,2.00
2017-12-28T01:11:00.547Z,2.00
2017-12-28T01:11:34.977Z,2.00
2017-12-28T01:12:08.649Z,2.00
2017-12-28T01:12:43.078Z,2.10
2017-12-28T01:13:16.734Z,2.00
2017-12-28T01:13:51.174Z,2.00
2017-12-28T01:14:25.234Z,2.10
2017-12-28T01:14:59.722Z,2.10
2017-12-28T01:15:33.378Z,2.10
2017-12-28T01:16:07.043Z,2.10
2017-12-28T01:16:40.721Z,2.10
2017-12-28T01:17:15.162Z,2.10
2017-12-28T01:17:48.823Z,2.10
2017-12-28T01:18:22.497Z,2.20
2017-12-28T01:18:56.941Z,2.20
2017-12-28T01:19:30.635Z,2.10
2017-12-28T01:20:04.303Z,2.20
2017-12-28T01:20:37.981Z,2.20
2017-12-28T01:21:12.422Z,2.20
2017-12-28T01:21:46.086Z,2.20
2017-12-28T01:22:19.758Z,2.20
2017-12-28T01:22:54.204Z,2.20
2017-12-28T01:23:27.869Z,2.20
2017-12-28T01:24:02.301Z,2.20
2017-12-28T01:24:35.993Z,2.20
2017-12-28T01:25:09.647Z,2.20
2017-12-28T01:25:44.077Z,2.20
2017-12-28T01:26:17.741Z,2.20
2017-12-28T01:26:52.169Z,2.20
2017-12-28T01:27:25.854Z,2.20
2017-12-28T01:27:59.525Z,2.20
2017-12-28T01:28:33.189Z,2.20
2017-12-28T01:29:09.094Z,2.20
2017-12-28T01:29:42.810Z,2.20
2017-12-28T01:30:16.487Z,2.20
2017-12-28T01:30:50.155Z,2.30
2017-12-28T01:31:23.831Z,2.20
2017-12-28T01:31:57.561Z,2.20
2017-12-28T01:32:31.235Z,2.30
2017-12-28T01:33:04.901Z,2.30
2017-12-28T01:33:38.570Z,2.30
2017-12-28T01:34:12.997Z,2.30
2017-12-28T01:34:46.678Z,2.30
2017-12-28T01:35:21.110Z,2.30
2017-12-28T01:35:54.770Z,2.30
2017-12-28T01:36:29.214Z,2.30
2017-12-28T01:37:02.875Z,2.30
2017-12-28T01:37:37.117Z,2.30
2017-12-28T01:38:10.853Z,2.30
2017-12-28T01:38:45.281Z,2.40
2017-12-28T01:39:19.710Z,2.40
2017-12-28T01:39:53.769Z,2.40
2017-12-28T01:40:28.195Z,2.40
2017-12-28T01:41:02.630Z,2.40
2017-12-28T01:41:36.126Z,2.40
2017-12-28T01:42:09.994Z,2.40
2017-12-28T01:42:43.663Z,2.40
2017-12-28T01:43:18.089Z,2.40
2017-12-28T01:43:51.761Z,2.40
2017-12-28T01:44:26.187Z,2.40
2017-12-28T01:44:59.713Z,2.40
2017-12-28T01:45:33.378Z,2.40
2017-12-28T01:46:07.057Z,2.40
2017-12-28T01:46:40.736Z,2.40
2017-12-28T01:47:14.400Z,2.40
2017-12-28T01:48:00.110Z,2.40
2017-12-28T01:48:33.796Z,2.40
2017-12-28T01:49:07.450Z,2.40
2017-12-28T01:49:40.968Z,2.40
2017-12-28T01:50:14.479Z,2.40
2017-12-28T01:50:48.158Z,2.50
2017-12-28T01:51:21.829Z,2.40
2017-12-28T01:51:55.490Z,2.50
2017-12-28T01:52:29.916Z,2.40
2017-12-28T01:53:03.579Z,2.40
2017-12-28T01:53:37.245Z,2.50
2017-12-28T01:54:10.914Z,2.50
2017-12-28T01:54:44.578Z,2.50
2017-12-28T01:55:18.281Z,2.50
2017-12-28T01:55:51.949Z,2.50
2017-12-28T01:56:26.385Z,2.50
2017-12-28T01:57:00.043Z,2.50
2017-12-28T01:57:34.482Z,2.50
2017-12-28T01:58:08.166Z,2.50
2017-12-28T01:58:41.830Z,2.50
2017-12-28T01:59:16.268Z,2.50
2017-12-28T01:59:49.956Z,2.50
2017-12-28T02:00:23.671Z,2.50
2017-12-28T02:00:57.334Z,2.60
2017-12-28T02:01:30.990Z,2.50
2017-12-28T02:02:05.417Z,2.60
2017-12-28T02:02:39.078Z,2.50
2017-12-28T02:03:12.730Z,2.50
2017-12-28T02:03:46.394Z,2.50
2017-12-28T02:04:20.063Z,2.50
2017-12-28T02:04:54.486Z,2.50
2017-12-28T02:05:28.259Z,2.50
2017-12-28T02:06:01.946Z,2.50
2017-12-28T02:06:36.369Z,2.50
2017-12-28T02:07:10.030Z,2.50
2017-12-28T02:07:43.705Z,2.50
2017-12-28T02:08:17.369Z,2.50
2017-12-28T02:08:51.041Z,2.50
2017-12-28T02:09:24.708Z,2.50
2017-12-28T02:09:59.145Z,2.40
2017-12-28T02:10:32.843Z,2.40
2017-12-28T02:11:06.502Z,2.40
2017-12-28T02:11:40.172Z,2.40
2017-12-28T02:12:14.610Z,2.40
2017-12-28T02:12:48.280Z,2.40
2017-12-28T02:13:22.710Z,2.40
2017-12-28T02:13:56.366Z,2.40
2017-12-28T02:14:30.793Z,2.40
2017-12-28T02:15:03.818Z,2.40
2017-12-28T02:15:37.507Z,2.40
2017-12-28T02:16:11.182Z,2.40
2017-12-28T02:16:44.853Z,2.30
2017-12-28T02:17:18.514Z,2.30
2017-12-28T02:17:52.951Z,2.30
2017-12-28T02:18:26.619Z,2.30
2017-12-28T02:19:00.275Z,2.40
2017-12-28T02:19:34.140Z,2.40
2017-12-28T02:20:07.138Z,2.40
2017-12-28T02:20:40.821Z,2.30
2017-12-28T02:21:14.479Z,2.40
2017-12-28T02:21:48.142Z,2.40
2017-12-28T02:22:21.849Z,2.40
2017-12-28T02:22:55.507Z,2.40
2017-12-28T02:23:29.945Z,2.40
2017-12-28T02:24:03.602Z,2.40
2017-12-28T02:24:38.046Z,2.40
2017-12-28T02:25:11.710Z,2.40
2017-12-28T02:25:45.428Z,2.40
2017-12-28T02:26:19.088Z,2.40
2017-12-28T02:26:53.522Z,2.40
2017-12-28T02:27:27.182Z,2.40
2017-12-28T02:28:01.616Z,2.40
2017-12-28T02:28:35.314Z,2.40
2017-12-28T02:29:08.985Z,2.50
2017-12-28T02:29:42.644Z,2.40
2017-12-28T02:30:17.066Z,2.50
2017-12-28T02:30:51.523Z,2.40
2017-12-28T02:31:25.173Z,2.50
2017-12-28T02:31:58.852Z,2.50
2017-12-28T02:32:33.310Z,2.40
2017-12-28T02:33:06.979Z,2.50
2017-12-28T02:33:40.635Z,2.40
2017-12-28T02:34:15.065Z,2.40
2017-12-28T02:34:48.717Z,2.40
2017-12-28T02:35:23.138Z,2.50
2017-12-28T02:35:57.590Z,2.40
2017-12-28T02:36:31.258Z,2.40
2017-12-28T02:37:04.921Z,2.40
2017-12-28T02:37:39.353Z,2.40
2017-12-28T02:38:13.011Z,2.40
2017-12-28T02:38:47.451Z,2.30
2017-12-28T02:39:21.107Z,2.30
2017-12-28T02:39:54.792Z,2.30
2017-12-28T02:40:28.621Z,2.30
2017-12-28T02:41:02.325Z,2.30
2017-12-28T02:41:35.989Z,2.30
2017-12-28T02:42:09.671Z,2.30
2017-12-28T02:42:44.102Z,2.30
2017-12-28T02:43:17.755Z,2.30
2017-12-28T02:43:52.178Z,2.30
2017-12-28T02:44:26.602Z,2.30
2017-12-28T02:45:00.257Z,2.30
2017-12-28T02:45:33.913Z,2.30
2017-12-28T02:46:07.605Z,2.20
2017-12-28T02:46:41.297Z,2.20
2017-12-28T02:47:14.953Z,2.30
2017-12-28T02:47:48.620Z,2.20
2017-12-28T02:48:23.045Z,2.20
2017-12-28T02:48:56.702Z,2.20
2017-12-28T02:49:30.390Z,2.20
2017-12-28T02:50:03.877Z,2.20
2017-12-28T02:50:38.313Z,2.20
2017-12-28T02:51:12.024Z,2.10
2017-12-28T02:51:45.893Z,2.20
2017-12-28T02:52:19.559Z,2.10
2017-12-28T02:52:53.977Z,2.10
2017-12-28T02:53:28.395Z,2.10
2017-12-28T02:54:02.073Z,2.10
2017-12-28T02:54:36.515Z,2.10
2017-12-28T02:55:10.191Z,2.10
2017-12-28T02:55:43.929Z,2.10
2017-12-28T02:56:17.620Z,2.10
2017-12-28T02:56:51.276Z,2.10
2017-12-28T02:57:24.930Z,2.10
2017-12-28T02:57:58.608Z,2.00
2017-12-28T02:58:33.035Z,2.10
2017-12-28T02:59:06.708Z,2.00
2017-12-28T02:59:41.154Z,2.00
2017-12-28T03:00:14.818Z,2.00
2017-12-28T03:00:49.256Z,2.00
2017-12-28T03:01:22.947Z,2.00
2017-12-28T03:01:56.289Z,2.00
2017-12-28T03:02:30.718Z,2.00
2017-12-28T03:03:04.375Z,2.00
2017-12-28T03:03:38.034Z,2.00
2017-12-28T03:04:11.702Z,2.00
2017-12-28T03:04:45.373Z,2.00
2017-12-28T03:05:19.106Z,2.00
2017-12-28T03:05:52.777Z,1.90
2017-12-28T03:06:26.642Z,1.90
2017-12-28T03:07:00.306Z,1.90
2017-12-28T03:07:34.746Z,1.90
2017-12-28T03:08:08.423Z,1.90
2017-12-28T03:08:42.077Z,1.90
2017-12-28T03:09:15.842Z,1.90
2017-12-28T03:09:49.676Z,1.90
2017-12-28T03:10:23.529Z,1.90
2017-12-28T03:10:57.194Z,1.90
2017-12-28T03:11:31.262Z,1.90
2017-12-28T03:12:05.689Z,1.90
2017-12-28T03:12:39.366Z,1.80
2017-12-28T03:13:13.804Z,1.80
2017-12-28T03:13:47.466Z,1.80
2017-12-28T03:14:21.122Z,1.80
2017-12-28T03:14:54.784Z,1.80
2017-12-28T03:15:28.450Z,1.80
2017-12-28T03:16:02.108Z,1.80
2017-12-28T03:16:36.842Z,1.80
2017-12-28T03:17:11.278Z,1.80
2017-12-28T03:17:44.958Z,1.80
2017-12-28T03:18:18.628Z,1.80
2017-12-28T03:18:51.627Z,1.80
2017-12-28T03:19:25.291Z,1.80
2017-12-28T03:19:58.957Z,1.80
2017-12-28T03:20:32.621Z,1.80
2017-12-28T03:21:06.295Z,1.80
2017-12-28T03:21:39.985Z,1.80
2017-12-28T03:22:13.664Z,1.80
2017-12-28T03:22:47.324Z,1.80
2017-12-28T03:23:20.986Z,1.80
2017-12-28T03:23:55.422Z,1.80
2017-12-28T03:24:29.859Z,1.80
2017-12-28T03:25:03.525Z,1.70
2017-12-28T03:25:37.089Z,1.80
2017-12-28T03:26:11.332Z,1.70
2017-12-28T03:26:45.182Z,1.70
2017-12-28T03:27:19.430Z,1.70
2017-12-28T03:27:53.102Z,1.70
2017-12-28T03:28:26.593Z,1.70
2017-12-28T03:29:00.260Z,1.70
2017-12-28T03:29:34.697Z,1.70
2017-12-28T03:30:08.361Z,1.70
2017-12-28T03:30:42.033Z,1.70
2017-12-28T03:31:15.710Z,1.70
2017-12-28T03:31:49.721Z,1.70
2017-12-28T03:32:23.379Z,1.70
2017-12-28T03:32:57.046Z,1.70
2017-12-28T03:33:30.714Z,1.70
2017-12-28T03:34:04.384Z,1.60
2017-12-28T03:34:38.850Z,1.60
2017-12-28T03:35:13.443Z,1.60
2017-12-28T03:35:47.106Z,1.60
2017-12-28T03:36:20.777Z,1.60
2017-12-28T03:36:55.258Z,1.60
2017-12-28T03:37:28.927Z,1.60
2017-12-28T03:38:02.397Z,1.60
2017-12-28T03:38:36.067Z,1.60
2017-12-28T03:39:09.725Z,1.60
2017-12-28T03:39:43.399Z,1.60
2017-12-28T03:40:17.062Z,1.50
2017-12-28T03:40:50.736Z,1.50
2017-12-28T03:41:24.401Z,1.50
2017-12-28T03:41:59.214Z,1.50
2017-12-28T03:42:33.657Z,1.50
2017-12-28T03:43:07.324Z,1.50
2017-12-28T03:43:41.562Z,1.50
2017-12-28T03:44:15.222Z,1.50
2017-12-28T03:44:48.728Z,1.50
2017-12-28T03:45:22.426Z,1.40
2017-12-28T03:45:56.081Z,1.40
2017-12-28T03:46:30.497Z,1.40
2017-12-28T03:47:04.008Z,1.40
2017-12-28T03:47:37.753Z,1.40
2017-12-28T03:48:12.177Z,1.40
2017-12-28T03:48:45.952Z,1.40
2017-12-28T03:49:20.369Z,1.30
2017-12-28T03:49:54.797Z,1.30
2017-12-28T03:50:28.460Z,1.40
2017-12-28T03:51:02.912Z,1.30
2017-12-28T03:51:36.575Z,1.30
2017-12-28T03:52:10.540Z,1.30
2017-12-28T03:52:45.005Z,1.30
2017-12-28T03:53:18.671Z,1.30
2017-12-28T03:53:52.321Z,1.30
2017-12-28T03:54:26.753Z,1.30
2017-12-28T03:55:01.176Z,1.30
2017-12-28T03:55:34.841Z,1.30
2017-12-28T03:56:09.256Z,1.30
2017-12-28T03:56:43.695Z,1.30
2017-12-28T03:57:17.390Z,1.30
2017-12-28T03:57:51.046Z,1.30
2017-12-28T03:58:24.711Z,1.20
2017-12-28T03:58:59.141Z,1.20
2017-12-28T03:59:33.577Z,1.20
2017-12-28T04:00:07.238Z,1.20
2017-12-28T04:00:41.673Z,1.20
2017-12-28T04:01:15.330Z,1.20
2017-12-28T04:01:49.772Z,1.20
2017-12-28T04:03:12.879Z,1.20
2017-12-28T04:03:47.314Z,1.20
2017-12-28T04:04:20.977Z,1.20
2017-12-28T04:04:55.406Z,1.20
2017-12-28T04:05:29.075Z,1.20
2017-12-28T04:06:03.508Z,1.20
2017-12-28T04:06:37.252Z,1.20
2017-12-28T04:07:10.921Z,1.20
2017-12-28T04:07:44.585Z,1.20
2017-12-28T04:08:18.287Z,1.20
2017-12-28T04:08:52.036Z,1.20
2017-12-28T04:09:26.470Z,1.20
2017-12-28T04:10:00.142Z,1.20
2017-12-28T04:10:33.808Z,1.20
2017-12-28T04:11:07.475Z,1.20
2017-12-28T04:11:41.142Z,1.10
2017-12-28T04:12:14.816Z,1.20
2017-12-28T04:12:48.165Z,1.10
2017-12-28T04:13:22.656Z,1.10
2017-12-28T04:13:56.318Z,1.10
2017-12-28T04:14:29.989Z,1.10
2017-12-28T04:15:03.662Z,1.10
2017-12-28T04:15:37.337Z,1.10
2017-12-28T04:16:11.014Z,1.10
2017-12-28T04:16:44.673Z,1.10
2017-12-28T04:17:18.345Z,1.10
2017-12-28T04:17:51.997Z,1.10
2017-12-28T04:18:26.437Z,1.10
2017-12-28T04:19:00.094Z,1.10
2017-12-28T04:19:34.524Z,1.10
2017-12-28T04:20:08.194Z,1.10
2017-12-28T04:20:42.681Z,1.10
2017-12-28T04:21:16.380Z,1.10
2017-12-28T04:21:50.801Z,1.00
2017-12-28T04:22:24.462Z,1.00
2017-12-28T04:22:58.119Z,1.00
2017-12-28T04:23:32.153Z,1.00
2017-12-28T04:24:05.818Z,1.10
2017-12-28T04:24:39.473Z,1.00
2017-12-28T04:25:13.465Z,1.00
2017-12-28T04:25:47.133Z,1.00
2017-12-28T04:26:21.567Z,1.00
2017-12-28T04:26:55.229Z,1.00
2017-12-28T04:27:29.658Z,1.00
2017-12-28T04:28:03.317Z,1.00
2017-12-28T04:28:37.836Z,1.00
2017-12-28T04:29:12.263Z,1.00
2017-12-28T04:29:45.922Z,1.00
2017-12-28T04:30:20.340Z,1.00
2017-12-28T04:30:54.808Z,1.00
2017-12-28T04:31:28.473Z,1.00
2017-12-28T04:32:02.131Z,1.00
2017-12-28T04:32:36.556Z,1.00
2017-12-28T04:33:10.218Z,1.00
2017-12-28T04:33:44.965Z,1.00
2017-12-28T04:34:18.630Z,1.00
2017-12-28T04:34:53.057Z,1.00
2017-12-28T04:35:26.725Z,1.00
2017-12-28T04:36:01.158Z,1.00
2017-12-28T04:36:34.826Z,1.00
2017-12-28T04:37:08.510Z,1.00
2017-12-28T04:37:42.943Z,1.00
2017-12-28T04:38:16.606Z,1.00
2017-12-28T04:38:51.060Z,1.00
2017-12-28T04:39:24.725Z,1.00
2017-12-28T04:39:59.406Z,1.00
2017-12-28T04:40:33.837Z,1.00
2017-12-28T04:41:07.500Z,1.00
2017-12-28T04:41:41.950Z,1.00
2017-12-28T04:42:15.610Z,0.90
2017-12-28T04:42:50.058Z,1.00
2017-12-28T04:43:23.734Z,1.00
2017-12-28T04:43:57.793Z,1.00
2017-12-28T04:44:32.215Z,0.90
2017-12-28T04:45:06.641Z,0.90
2017-12-28T04:45:40.309Z,0.90
2017-12-28T04:46:14.738Z,0.90
2017-12-28T04:46:48.406Z,0.90
2017-12-28T04:47:22.858Z,0.90
2017-12-28T04:47:56.533Z,0.90
2017-12-28T04:48:30.016Z,0.90
2017-12-28T04:49:03.713Z,0.90
2017-12-28T04:49:37.369Z,0.90
2017-12-28T04:50:11.803Z,0.90
2017-12-28T04:50:45.466Z,0.90
2017-12-28T04:51:19.900Z,0.90
2017-12-28T04:51:53.566Z,0.90
2017-12-28T04:52:27.227Z,0.90
2017-12-28T04:53:00.888Z,0.90
2017-12-28T04:53:34.370Z,0.90
2017-12-28T04:54:08.064Z,0.90
2017-12-28T04:54:41.737Z,0.90
2017-12-28T04:55:15.401Z,0.90
2017-12-28T04:55:48.901Z,0.90
2017-12-28T04:56:22.557Z,0.90
2017-12-28T04:56:56.982Z,0.90
2017-12-28T04:57:30.642Z,0.90
2017-12-28T04:58:04.305Z,0.90
2017-12-28T04:58:37.962Z,0.90
2017-12-28T04:59:11.650Z,0.90
2017-12-28T04:59:45.317Z,0.90
2017-12-28T05:00:19.751Z,0.90
2017-12-28T05:00:53.405Z,0.90
2017-12-28T05:01:27.837Z,0.90
2017-12-28T05:02:01.497Z,0.90
2017-12-28T05:02:35.160Z,0.90
2017-12-28T05:03:08.825Z,0.90
2017-12-28T05:03:42.486Z,0.90
2017-12-28T05:04:16.946Z,0.90
2017-12-28T05:04:50.602Z,0.90
2017-12-28T05:05:24.265Z,0.90
2017-12-28T05:05:58.694Z,0.90
2017-12-28T05:06:32.346Z,0.90
2017-12-28T05:07:06.008Z,0.90
2017-12-28T05:07:39.681Z,0.90
2017-12-28T05:08:13.338Z,0.90
2017-12-28T05:08:47.004Z,0.90
2017-12-28T05:09:21.840Z,1.00
2017-12-28T05:09:56.266Z,1.00
2017-12-28T05:10:29.935Z,1.00
2017-12-28T05:11:04.369Z,1.00
2017-12-28T05:11:38.033Z,1.00
2017-12-28T05:12:12.452Z,1.00
2017-12-28T05:12:46.175Z,1.00
2017-12-28T05:13:19.857Z,1.00
2017-12-28T05:13:53.526Z,1.00
2017-12-28T05:14:27.489Z,1.00
2017-12-28T05:15:01.229Z,1.00
2017-12-28T05:15:34.893Z,1.10
2017-12-28T05:16:08.561Z,1.00
2017-12-28T05:16:42.993Z,1.10
2017-12-28T05:17:16.318Z,1.10
2017-12-28T05:17:49.988Z,1.10
2017-12-28T05:18:23.650Z,1.10
2017-12-28T05:18:57.316Z,1.10
2017-12-28T05:19:32.095Z,1.10
2017-12-28T05:20:05.768Z,1.10
2017-12-28T05:20:39.488Z,1.10
2017-12-28T05:21:13.142Z,1.10
2017-12-28T05:21:46.806Z,1.10
2017-12-28T05:22:20.469Z,1.10
2017-12-28T05:22:54.122Z,1.10
2017-12-28T05:23:27.780Z,1.20
2017-12-28T05:24:01.438Z,1.20
2017-12-28T05:24:35.446Z,1.20
2017-12-28T05:25:09.880Z,1.10
2017-12-28T05:25:43.547Z,1.20
2017-12-28T05:26:17.977Z,1.20
2017-12-28T05:26:51.650Z,1.20
2017-12-28T05:27:26.089Z,1.20
2017-12-28T05:27:59.754Z,1.20
2017-12-28T05:28:34.182Z,1.20
2017-12-28T05:29:07.852Z,1.20
2017-12-28T05:29:42.309Z,1.20
2017-12-28T05:30:15.975Z,1.20
2017-12-28T05:30:49.663Z,1.20
2017-12-28T05:31:23.326Z,1.20
2017-12-28T05:31:56.998Z,1.20
2017-12-28T05:32:31.422Z,1.20
2017-12-28T05:33:05.073Z,1.20
2017-12-28T05:33:38.731Z,1.20
2017-12-28T05:34:12.395Z,1.20
2017-12-28T05:34:46.369Z,1.20
2017-12-28T05:35:20.797Z,1.20
2017-12-28T05:35:54.450Z,1.20
2017-12-28T05:36:28.120Z,1.20
2017-12-28T05:37:01.792Z,1.20
2017-12-28T05:37:35.454Z,1.20
2017-12-28T05:38:09.122Z,1.20
2017-12-28T05:38:43.561Z,1.30
2017-12-28T05:39:17.237Z,1.20
2017-12-28T05:39:51.229Z,1.30
2017-12-28T05:40:25.653Z,1.30
2017-12-28T05:40:59.302Z,1.30
2017-12-28T05:41:32.975Z,1.30
2017-12-28T05:42:06.634Z,1.30
2017-12-28T05:42:40.119Z,1.30
2017-12-28T05:43:13.598Z,1.30
2017-12-28T05:43:47.069Z,1.30
2017-12-28T05:44:20.542Z,1.30
2017-12-28T05:44:54.989Z,1.30
2017-12-28T05:45:28.657Z,1.30
2017-12-28T05:46:02.142Z,1.40
2017-12-28T05:46:35.806Z,1.40
2017-12-28T05:47:10.232Z,1.40
2017-12-28T05:47:43.988Z,1.40
2017-12-28T05:48:17.653Z,1.40
2017-12-28T05:48:51.128Z,1.40
2017-12-28T05:49:24.793Z,1.40
2017-12-28T05:49:58.504Z,1.40
2017-12-28T05:50:32.174Z,1.40
2017-12-28T05:51:05.851Z,1.40
2017-12-28T05:51:39.324Z,1.40
2017-12-28T05:52:13.745Z,1.40
2017-12-28T05:52:47.410Z,1.40
2017-12-28T05:53:21.834Z,1.40
2017-12-28T05:53:55.309Z,1.40
2017-12-28T05:54:29.742Z,1.50
2017-12-28T05:55:03.476Z,1.50
2017-12-28T05:55:37.946Z,1.50
2017-12-28T05:56:11.619Z,1.50
2017-12-28T05:56:45.277Z,1.50
2017-12-28T05:57:18.946Z,1.50
2017-12-28T05:57:52.615Z,1.50
2017-12-28T05:58:26.278Z,1.50
2017-12-28T05:58:59.988Z,1.50
2017-12-28T05:59:33.889Z,1.50
2017-12-28T06:00:07.574Z,1.50
2017-12-28T06:00:41.240Z,1.50
2017-12-28T06:01:14.893Z,1.50
2017-12-28T06:01:48.546Z,1.50
2017-12-28T06:02:22.206Z,1.50
2017-12-28T06:02:55.866Z,1.50
2017-12-28T06:03:29.532Z,1.50
2017-12-28T06:04:03.190Z,1.50
2017-12-28T06:04:36.845Z,1.50
2017-12-28T06:05:11.302Z,1.50
2017-12-28T06:05:44.965Z,1.50
2017-12-28T06:06:18.639Z,1.50
2017-12-28T06:06:53.063Z,1.50
2017-12-28T06:07:26.740Z,1.50
2017-12-28T06:08:01.170Z,1.50
2017-12-28T06:08:34.821Z,1.50
2017-12-28T06:09:09.248Z,1.50
2017-12-28T06:09:43.977Z,1.50
2017-12-28T06:10:17.677Z,1.50
2017-12-28T06:10:51.337Z,1.50
2017-12-28T06:11:25.772Z,1.50
2017-12-28T06:11:59.438Z,1.50
2017-12-28T06:12:33.120Z,1.60
2017-12-28T06:13:07.561Z,1.50
2017-12-28T06:13:41.226Z,1.50
2017-12-28T06:14:14.908Z,1.50
2017-12-28T06:14:49.346Z,1.60
2017-12-28T06:15:23.042Z,1.50
2017-12-28T06:15:56.818Z,1.50
2017-12-28T06:16:30.486Z,1.50
2017-12-28T06:17:04.926Z,1.60
2017-12-28T06:17:38.605Z,1.60
2017-12-28T06:18:12.094Z,1.60
2017-12-28T06:18:45.757Z,1.60
2017-12-28T06:19:20.202Z,1.50
2017-12-28T06:19:53.865Z,1.50
2017-12-28T06:20:27.599Z,1.60
2017-12-28T06:21:01.278Z,1.60
2017-12-28T06:21:34.940Z,1.60
2017-12-28T06:22:08.614Z,1.60
2017-12-28T06:22:43.045Z,1.60
2017-12-28T06:23:16.703Z,1.60
2017-12-28T06:23:50.945Z,1.60
2017-12-28T06:24:24.622Z,1.60
2017-12-28T06:24:58.286Z,1.60
2017-12-28T06:25:33.035Z,1.60
2017-12-28T06:26:06.700Z,1.60
2017-12-28T06:26:40.950Z,1.60
2017-12-28T06:27:14.426Z,1.60
2017-12-28T06:27:48.105Z,1.60
2017-12-28T06:28:21.771Z,1.60
2017-12-28T06:28:55.446Z,1.60
2017-12-28T06:29:29.886Z,1.60
2017-12-28T06:30:03.562Z,1.60
2017-12-28T06:30:37.262Z,1.60
2017-12-28T06:31:10.918Z,1.60
2017-12-28T06:31:45.351Z,1.60
2017-12-28T06:32:19.013Z,1.60
2017-12-28T06:32:53.438Z,1.60
2017-12-28T06:33:26.926Z,1.60
2017-12-28T06:34:00.582Z,1.60
2017-12-28T06:34:34.248Z,1.60
2017-12-28T06:35:08.078Z,1.60
2017-12-28T06:35:42.532Z,1.60
2017-12-28T06:36:16.196Z,1.60
2017-12-28T06:36:49.866Z,1.60
2017-12-28T06:37:24.293Z,1.60
2017-12-28T06:37:57.959Z,1.60
2017-12-28T06:38:32.380Z,1.60
2017-12-28T06:39:06.812Z,1.60
2017-12-28T06:39:40.478Z,1.60
2017-12-28T06:40:14.914Z,1.60
2017-12-28T06:40:48.969Z,1.60
2017-12-28T06:41:23.389Z,1.60
2017-12-28T06:41:57.822Z,1.60
2017-12-28T06:42:31.477Z,1.60
2017-12-28T06:43:05.905Z,1.60
2017-12-28T06:43:39.674Z,1.60
2017-12-28T06:44:14.105Z,1.60
2017-12-28T06:44:47.873Z,1.60
2017-12-28T06:45:21.538Z,1.60
2017-12-28T06:45:55.557Z,1.60
2017-12-28T06:46:29.993Z,1.60
2017-12-28T06:47:03.653Z,1.60
2017-12-28T06:47:38.072Z,1.60
2017-12-28T06:48:12.509Z,1.60
2017-12-28T06:48:46.170Z,1.60
2017-12-28T06:49:20.594Z,1.60
2017-12-28T06:49:54.258Z,1.60
2017-12-28T06:50:28.687Z,1.60
2017-12-28T06:51:02.756Z,1.60
2017-12-28T06:51:37.190Z,1.60
2017-12-28T06:52:10.857Z,1.50
2017-12-28T06:52:45.310Z,1.50
2017-12-28T06:53:18.986Z,1.60
2017-12-28T06:53:52.670Z,1.50
2017-12-28T06:54:26.397Z,1.60
2017-12-28T06:55:00.083Z,1.60
2017-12-28T06:55:33.749Z,1.60
2017-12-28T06:56:07.441Z,1.60
2017-12-28T06:56:41.115Z,1.50
2017-12-28T06:57:14.780Z,1.50
2017-12-28T06:57:49.205Z,1.50
2017-12-28T06:58:23.638Z,1.50
2017-12-28T06:58:59.103Z,1.50
2017-12-28T06:59:32.906Z,1.50
2017-12-28T07:00:07.781Z,1.50
2017-12-28T07:00:41.454Z,1.50
2017-12-28T07:01:15.634Z,1.50
2017-12-28T07:01:50.063Z,1.50
2017-12-28T07:02:23.725Z,1.50
2017-12-28T07:02:58.157Z,1.50
2017-12-28T07:03:31.820Z,1.50
2017-12-28T07:04:06.244Z,1.50
2017-12-28T07:04:40.673Z,1.60
2017-12-28T07:05:14.342Z,1.50
2017-12-28T07:05:48.009Z,1.50
2017-12-28T07:06:21.723Z,1.50
2017-12-28T07:06:55.498Z,1.50
2017-12-28T07:07:29.941Z,1.60
2017-12-28T07:08:03.613Z,1.60
2017-12-28T07:08:37.270Z,1.60
2017-12-28T07:09:10.933Z,1.60
2017-12-28T07:09:44.609Z,1.50
2017-12-28T07:10:18.290Z,1.60
2017-12-28T07:10:51.951Z,1.60
2017-12-28T07:11:26.402Z,1.60
2017-12-28T07:12:00.084Z,1.60
2017-12-28T07:12:33.751Z,1.60
2017-12-28T07:13:07.414Z,1.60
2017-12-28T07:13:41.078Z,1.50
2017-12-28T07:14:14.744Z,1.50
2017-12-28T07:14:48.406Z,1.60
2017-12-28T07:15:22.073Z,1.50
2017-12-28T07:15:56.502Z,1.50
2017-12-28T07:16:30.192Z,1.50
2017-12-28T07:17:03.874Z,1.50
2017-12-28T07:17:38.318Z,1.50
2017-12-28T07:18:11.978Z,1.50
2017-12-28T07:18:45.652Z,1.50
2017-12-28T07:19:20.103Z,1.50
2017-12-28T07:19:53.800Z,1.50
2017-12-28T07:20:27.492Z,1.60
2017-12-28T07:21:01.178Z,1.50
2017-12-28T07:21:35.155Z,1.50
2017-12-28T07:22:08.809Z,1.50
2017-12-28T07:22:43.252Z,1.50
2017-12-28T07:23:17.010Z,1.50
2017-12-28T07:23:51.447Z,1.50
2017-12-28T07:24:25.123Z,1.50
2017-12-28T07:24:58.795Z,1.50
2017-12-28T07:25:33.237Z,1.50
2017-12-28T07:26:06.902Z,1.50
2017-12-28T07:26:41.376Z,1.50
2017-12-28T07:27:15.046Z,1.50
2017-12-28T07:27:48.735Z,1.50
2017-12-28T07:28:22.412Z,1.50
2017-12-28T07:28:56.077Z,1.50
2017-12-28T07:29:29.896Z,1.50
2017-12-28T07:30:03.230Z,1.50
2017-12-28T07:30:37.670Z,1.50
2017-12-28T07:31:11.342Z,1.50
2017-12-28T07:31:45.625Z,1.50
2017-12-28T07:32:20.071Z,1.50